createdAt,value
2023-12-23T00:01:16.314Z,4.82
2023-12-23T00:04:18.223Z,5.10
2023-12-23T00:07:20.365Z,5.22
2023-12-23T00:10:22.604Z,5.22
2023-12-23T00:13:24.494Z,5.07
2023-12-23T00:16:27.803Z,4.45
2023-12-23T00:19:32.169Z,6.10
2023-12-23T00:22:34.129Z,7.13
2023-12-23T00:25:36.544Z,8.55
2023-12-23T00:28:38.390Z,9.60
2023-12-23T00:31:40.373Z,9.27
2023-12-23T00:34:42.305Z,7.70
2023-12-23T00:37:44.297Z,5.90
2023-12-23T00:40:46.161Z,9.18
2023-12-23T00:43:47.990Z,9.60
2023-12-23T00:46:50.010Z,6.68
2023-12-23T00:49:51.898Z,10.15
2023-12-23T00:52:54.364Z,8.07
2023-12-23T00:55:56.293Z,7.07
2023-12-23T00:58:58.231Z,7.05
2023-12-23T01:02:00.034Z,6.38
2023-12-23T01:05:02.740Z,6.07
2023-12-23T01:08:05.194Z,6.13
2023-12-23T01:11:07.250Z,5.32
2023-12-23T01:14:09.515Z,6.00
2023-12-23T01:17:11.709Z,5.70
2023-12-23T01:20:13.778Z,5.50
2023-12-23T01:23:15.962Z,6.60
2023-12-23T01:26:17.976Z,8.35
2023-12-23T01:29:20.115Z,8.52
2023-12-23T01:32:22.526Z,7.13
2023-12-23T01:35:24.537Z,6.53
2023-12-23T01:38:26.487Z,6.07
2023-12-23T01:41:28.279Z,5.65
2023-12-23T01:44:30.174Z,5.63
2023-12-23T01:47:32.056Z,5.40
2023-12-23T01:50:34.106Z,5.82
2023-12-23T01:53:36.470Z,7.90
2023-12-23T01:56:38.403Z,10.25
2023-12-23T01:59:40.363Z,12.10
2023-12-23T02:02:42.353Z,11.90
2023-12-23T02:05:46.937Z,13.18
2023-12-23T02:08:49.075Z,11.57
2023-12-23T02:12:06.657Z,11.05
2023-12-23T02:15:16.566Z,10.88
2023-12-23T02:18:18.613Z,10.60
2023-12-23T02:21:20.407Z,10.88
2023-12-23T02:24:22.423Z,10.38
2023-12-23T02:27:31.062Z,11.40
2023-12-23T02:30:34.978Z,12.90
2023-12-23T02:33:37.469Z,12.65
2023-12-23T02:36:40.285Z,13.80
2023-12-23T02:39:42.203Z,13.98
2023-12-23T02:42:44.016Z,14.45
2023-12-23T02:45:45.844Z,14.38
2023-12-23T02:48:47.750Z,14.63
2023-12-23T02:51:49.627Z,13.95
2023-12-23T02:54:51.600Z,13.55
2023-12-23T02:57:53.884Z,14.15
2023-12-23T03:00:55.850Z,12.85
2023-12-23T03:03:57.714Z,12.25
2023-12-23T03:06:59.940Z,12.35
2023-12-23T03:10:01.972Z,11.85
2023-12-23T03:13:04.326Z,11.13
2023-12-23T03:16:19.109Z,9.45
2023-12-23T03:19:20.994Z,10.20
2023-12-23T03:22:23.073Z,7.60
2023-12-23T03:25:25.291Z,6.70
2023-12-23T03:28:27.216Z,6.75
2023-12-23T03:31:29.114Z,6.85
2023-12-23T03:34:30.949Z,8.25
2023-12-23T03:37:32.690Z,7.45
2023-12-23T03:40:36.400Z,7.78
2023-12-23T03:43:39.346Z,6.20
2023-12-23T03:46:41.248Z,4.88
2023-12-23T03:49:43.668Z,3.60
2023-12-23T03:52:45.498Z,2.97
2023-12-23T03:55:47.714Z,2.83
2023-12-23T03:58:49.672Z,2.40
2023-12-23T04:01:51.704Z,2.97
2023-12-23T04:04:53.711Z,2.63
2023-12-23T04:07:55.721Z,3.45
2023-12-23T04:10:57.558Z,4.82
2023-12-23T04:13:59.739Z,3.15
2023-12-23T04:17:01.606Z,2.25
2023-12-23T04:20:03.729Z,1.90
2023-12-23T04:23:05.665Z,1.98
2023-12-23T04:26:09.686Z,3.13
2023-12-23T04:29:12.692Z,3.60
2023-12-23T04:32:14.886Z,3.08
2023-12-23T04:35:17.416Z,2.72
2023-12-23T04:38:20.208Z,2.85
2023-12-23T04:41:22.310Z,2.70
2023-12-23T04:44:24.707Z,2.78
2023-12-23T04:47:26.824Z,6.30
2023-12-23T04:50:28.797Z,5.80
2023-12-23T04:53:30.700Z,5.20
2023-12-23T04:56:32.655Z,3.63
2023-12-23T04:59:34.610Z,3.22
2023-12-23T05:02:36.540Z,2.80
2023-12-23T05:05:40.181Z,2.55
2023-12-23T05:08:42.166Z,3.00
2023-12-23T05:11:44.018Z,5.75
2023-12-23T05:14:45.845Z,4.18
2023-12-23T05:17:47.807Z,4.28
2023-12-23T05:20:49.667Z,3.92
2023-12-23T05:23:51.581Z,3.50
2023-12-23T05:26:53.386Z,3.22
2023-12-23T05:29:56.887Z,3.10
2023-12-23T05:32:58.732Z,3.60
2023-12-23T05:36:00.728Z,10.70
2023-12-23T05:39:02.612Z,4.93
2023-12-23T05:42:04.657Z,4.10
2023-12-23T05:45:07.340Z,4.30
2023-12-23T05:48:09.374Z,4.15
2023-12-23T05:51:12.294Z,4.20
2023-12-23T05:54:14.141Z,4.45
2023-12-23T05:57:16.205Z,4.10
2023-12-23T06:00:21.402Z,4.47
2023-12-23T06:03:23.336Z,4.75
2023-12-23T06:06:25.240Z,5.30
2023-12-23T06:09:27.417Z,4.72
2023-12-23T06:12:29.294Z,6.72
2023-12-23T06:15:31.131Z,6.75
2023-12-23T06:18:34.010Z,7.45
2023-12-23T06:21:35.908Z,6.25
2023-12-23T06:24:37.889Z,5.63
2023-12-23T06:27:39.678Z,5.65
2023-12-23T06:30:41.674Z,5.60
2023-12-23T06:33:43.928Z,5.68
2023-12-23T06:36:45.886Z,5.80
2023-12-23T06:39:47.774Z,6.40
2023-12-23T06:42:49.844Z,5.70
2023-12-23T06:45:51.859Z,5.43
2023-12-23T06:48:53.924Z,4.90
2023-12-23T06:51:55.961Z,4.88
2023-12-23T06:54:57.900Z,6.75
2023-12-23T06:58:01.555Z,6.63
2023-12-23T07:01:03.477Z,5.68
2023-12-23T07:04:05.644Z,4.65
2023-12-23T07:07:07.885Z,4.20
2023-12-23T07:10:09.887Z,3.78
2023-12-23T07:13:11.774Z,4.10
2023-12-23T07:16:13.722Z,3.75
2023-12-23T07:19:15.688Z,3.70
2023-12-23T07:22:17.783Z,3.85
2023-12-23T07:25:19.716Z,3.85
2023-12-23T07:28:21.621Z,3.63
2023-12-23T07:31:23.539Z,2.78
2023-12-23T07:34:25.485Z,3.13
2023-12-23T07:37:27.438Z,3.17
2023-12-23T07:40:31.075Z,3.53
2023-12-23T07:43:34.114Z,2.90
2023-12-23T07:46:36.197Z,3.40
2023-12-23T07:49:39.450Z,2.33
2023-12-23T07:52:41.787Z,2.03
2023-12-23T07:55:43.686Z,2.40
2023-12-23T07:58:45.577Z,2.25
2023-12-23T08:01:47.821Z,2.55
2023-12-23T08:04:49.989Z,2.90
2023-12-23T08:07:52.026Z,2.50
2023-12-23T08:10:55.537Z,2.97
2023-12-23T08:13:57.421Z,2.90
2023-12-23T08:16:59.642Z,3.78
2023-12-23T08:20:02.035Z,3.50
2023-12-23T08:23:04.391Z,4.13
2023-12-23T08:26:06.432Z,4.80
2023-12-23T08:29:08.345Z,4.75
2023-12-23T08:32:10.251Z,3.15
2023-12-23T08:35:12.200Z,1.85
2023-12-23T08:38:14.177Z,2.13
2023-12-23T08:41:16.063Z,1.60
2023-12-23T08:44:18.633Z,1.75
2023-12-23T08:47:20.522Z,1.73
2023-12-23T08:50:23.923Z,2.25
2023-12-23T08:53:25.929Z,1.77
2023-12-23T08:56:27.890Z,1.90
2023-12-23T08:59:29.765Z,2.40
2023-12-23T09:02:31.771Z,1.83
2023-12-23T09:05:34.057Z,1.55
2023-12-23T09:08:36.081Z,1.50
2023-12-23T09:11:45.191Z,1.48
2023-12-23T09:14:50.365Z,1.63
2023-12-23T09:17:52.610Z,1.42
2023-12-23T09:20:54.733Z,1.60
2023-12-23T09:23:56.878Z,1.20
2023-12-23T09:27:00.300Z,1.20
2023-12-23T09:30:02.708Z,1.20
2023-12-23T09:33:07.238Z,1.30
2023-12-23T09:36:09.396Z,1.20
2023-12-23T09:39:11.251Z,1.27
2023-12-23T09:42:13.425Z,1.20
2023-12-23T09:45:16.524Z,1.10
2023-12-23T09:48:18.943Z,1.00
2023-12-23T09:51:26.715Z,1.10
2023-12-23T09:54:30.253Z,0.82
2023-12-23T09:57:33.259Z,1.08
2023-12-23T10:00:38.211Z,1.45
2023-12-23T10:03:40.936Z,1.00
2023-12-23T10:06:42.914Z,1.00
2023-12-23T10:09:44.678Z,1.20
2023-12-23T10:12:46.570Z,1.10
2023-12-23T10:15:48.611Z,2.60
2023-12-23T10:18:50.461Z,2.80
2023-12-23T10:21:52.449Z,2.08
2023-12-23T10:24:54.374Z,1.70
2023-12-23T10:28:01.306Z,2.13
2023-12-23T10:31:04.260Z,1.80
2023-12-23T10:34:13.504Z,1.67
2023-12-23T10:37:17.162Z,1.45
2023-12-23T10:40:29.201Z,1.50
2023-12-23T10:43:31.634Z,1.55
2023-12-23T10:46:34.481Z,1.35
2023-12-23T10:49:37.400Z,1.90
2023-12-23T10:52:39.458Z,1.60
2023-12-23T10:55:42.001Z,2.00
2023-12-23T10:58:43.985Z,1.45
2023-12-23T11:01:47.902Z,1.95
2023-12-23T11:04:53.132Z,2.15
2023-12-23T11:08:01.798Z,2.28
2023-12-23T11:11:09.219Z,2.25
2023-12-23T11:14:11.120Z,2.20
2023-12-23T11:17:27.216Z,2.00
2023-12-23T11:20:38.304Z,1.77
2023-12-23T11:23:40.260Z,1.55
2023-12-23T11:26:43.532Z,2.08
2023-12-23T11:29:45.590Z,1.80
2023-12-23T11:32:47.727Z,1.70
2023-12-23T11:35:50.934Z,1.92
2023-12-23T11:38:53.948Z,1.42
2023-12-23T11:41:56.507Z,1.80
2023-12-23T11:44:58.487Z,1.88
2023-12-23T11:48:00.769Z,1.95
2023-12-23T11:51:02.993Z,1.77
2023-12-23T11:54:05.144Z,2.10
2023-12-23T11:57:07.150Z,2.05
2023-12-23T12:00:09.756Z,1.85
2023-12-23T12:03:12.182Z,1.50
2023-12-23T12:06:14.320Z,1.58
2023-12-23T12:09:16.316Z,1.48
2023-12-23T12:12:18.805Z,1.20
2023-12-23T12:15:20.718Z,1.25
2023-12-23T12:18:22.773Z,1.55
2023-12-23T12:21:24.692Z,1.77
2023-12-23T12:24:27.364Z,1.83
2023-12-23T12:27:29.870Z,1.52
2023-12-23T12:30:31.735Z,1.60
2023-12-23T12:33:35.325Z,1.55
2023-12-23T12:36:37.269Z,1.17
2023-12-23T12:39:39.253Z,1.20
2023-12-23T12:42:50.986Z,1.85
2023-12-23T12:45:52.961Z,1.95
2023-12-23T12:48:55.653Z,1.90
2023-12-23T12:51:57.616Z,2.00
2023-12-23T12:55:01.272Z,1.98
2023-12-23T12:58:03.827Z,2.90
2023-12-23T13:01:06.067Z,2.47
2023-12-23T13:04:07.980Z,1.92
2023-12-23T13:07:09.835Z,2.35
2023-12-23T13:10:11.785Z,2.30
2023-12-23T13:13:14.027Z,2.80
2023-12-23T13:16:15.936Z,2.92
2023-12-23T13:19:17.912Z,1.90
2023-12-23T13:22:20.343Z,2.30
2023-12-23T13:25:22.478Z,4.10
2023-12-23T13:28:24.318Z,5.03
2023-12-23T13:31:26.300Z,4.85
2023-12-23T13:34:28.227Z,5.43
2023-12-23T13:37:30.406Z,5.05
2023-12-23T13:40:32.278Z,4.90
2023-12-23T13:43:34.162Z,4.68
2023-12-23T13:46:36.329Z,5.63
2023-12-23T13:49:38.300Z,5.07
2023-12-23T13:52:40.902Z,4.63
2023-12-23T13:55:44.998Z,3.95
2023-12-23T13:58:46.988Z,3.50
2023-12-23T14:01:48.881Z,3.22
2023-12-23T14:04:50.839Z,2.80
2023-12-23T14:07:52.666Z,2.90
2023-12-23T14:10:55.128Z,2.72
2023-12-23T14:13:57.121Z,2.45
2023-12-23T14:16:59.197Z,2.90
2023-12-23T14:20:01.275Z,2.40
2023-12-23T14:23:08.036Z,2.75
2023-12-23T14:26:10.097Z,3.40
2023-12-23T14:29:12.117Z,3.80
2023-12-23T14:32:14.060Z,2.25
2023-12-23T14:35:16.127Z,2.15
2023-12-23T14:38:18.040Z,1.95
2023-12-23T14:41:20.030Z,1.42
2023-12-23T14:44:21.973Z,1.50
2023-12-23T14:47:23.957Z,2.10
2023-12-23T14:50:25.922Z,1.88
2023-12-23T14:53:29.377Z,2.00
2023-12-23T14:56:31.348Z,1.88
2023-12-23T14:59:33.286Z,2.95
2023-12-23T15:02:35.305Z,3.10
2023-12-23T15:05:37.364Z,3.78
2023-12-23T15:08:39.190Z,3.08
2023-12-23T15:11:41.112Z,3.90
2023-12-23T15:14:43.028Z,8.90
2023-12-23T15:17:45.225Z,6.93
2023-12-23T15:20:47.300Z,8.90
2023-12-23T15:23:49.841Z,3.70
2023-12-23T15:26:54.506Z,3.33
2023-12-23T15:29:56.920Z,2.95
2023-12-23T15:32:59.037Z,13.45
2023-12-23T15:36:01.256Z,17.25
2023-12-23T15:39:03.445Z,22.55
2023-12-23T15:42:05.769Z,10.90
2023-12-23T15:45:08.241Z,6.68
2023-12-23T15:48:10.445Z,4.55
2023-12-23T15:51:12.459Z,5.45
2023-12-23T15:54:14.474Z,8.10
2023-12-23T15:57:16.879Z,9.30
2023-12-23T16:00:18.998Z,10.07
2023-12-23T16:03:21.079Z,10.75
2023-12-23T16:06:23.389Z,11.98
2023-12-23T16:09:26.046Z,12.15
2023-12-23T16:12:27.924Z,6.30
2023-12-23T16:15:29.820Z,5.70
2023-12-23T16:18:31.948Z,4.10
2023-12-23T16:21:34.001Z,3.42
2023-12-23T16:24:35.880Z,3.10
2023-12-23T16:27:37.693Z,2.80
2023-12-23T16:30:40.432Z,2.10
2023-12-23T16:33:43.053Z,2.20
2023-12-23T16:36:45.863Z,1.83
2023-12-23T16:39:49.151Z,1.92
2023-12-23T16:42:51.290Z,2.17
2023-12-23T16:45:53.212Z,10.00
2023-12-23T16:48:55.365Z,7.22
2023-12-23T16:51:59.346Z,7.93
2023-12-23T16:55:01.327Z,4.82
2023-12-23T16:58:03.159Z,3.50
2023-12-23T17:01:05.389Z,3.03
2023-12-23T17:04:07.442Z,3.50
2023-12-23T17:07:09.954Z,2.83
2023-12-23T17:10:13.344Z,2.40
2023-12-23T17:13:15.225Z,2.65
2023-12-23T17:16:17.517Z,10.27
2023-12-23T17:19:19.465Z,5.28
2023-12-23T17:22:23.718Z,3.47
2023-12-23T17:25:27.069Z,3.85
2023-12-23T17:28:29.332Z,2.97
2023-12-23T17:31:31.315Z,2.30
2023-12-23T17:34:33.109Z,2.55
2023-12-23T17:37:35.110Z,2.67
2023-12-23T17:40:37.995Z,2.40
2023-12-23T17:43:41.544Z,2.78
2023-12-23T17:46:44.254Z,2.40
2023-12-23T17:49:46.156Z,2.78
2023-12-23T17:52:48.096Z,2.60
2023-12-23T17:55:50.450Z,2.70
2023-12-23T17:58:52.355Z,3.65
2023-12-23T18:01:54.690Z,4.60
2023-12-23T18:04:57.405Z,4.18
2023-12-23T18:07:59.431Z,3.40
2023-12-23T18:11:01.688Z,3.10
2023-12-23T18:14:04.763Z,3.92
2023-12-23T18:17:06.699Z,2.83
2023-12-23T18:20:09.818Z,2.80
2023-12-23T18:23:12.193Z,3.00
2023-12-23T18:26:14.276Z,2.28
2023-12-23T18:29:16.297Z,2.67
2023-12-23T18:32:18.223Z,2.50
2023-12-23T18:35:20.278Z,2.30
2023-12-23T18:38:22.298Z,2.08
2023-12-23T18:41:24.694Z,1.98
2023-12-23T18:44:26.715Z,2.03
2023-12-23T18:47:28.758Z,2.22
2023-12-23T18:50:37.225Z,2.40
2023-12-23T18:53:39.360Z,2.90
2023-12-23T18:56:41.165Z,3.38
2023-12-23T18:59:43.116Z,2.83
2023-12-23T19:02:45.226Z,3.78
2023-12-23T19:05:47.334Z,3.50
2023-12-23T19:08:49.853Z,2.83
2023-12-23T19:11:51.820Z,2.15
2023-12-23T19:14:53.646Z,1.92
2023-12-23T19:17:56.151Z,2.50
2023-12-23T19:21:00.034Z,3.20
2023-12-23T19:24:01.925Z,3.40
2023-12-23T19:27:04.342Z,4.20
2023-12-23T19:30:07.085Z,3.75
2023-12-23T19:33:10.272Z,3.03
2023-12-23T19:36:13.375Z,2.58
2023-12-23T19:39:15.294Z,6.60
2023-12-23T19:42:17.773Z,4.63
2023-12-23T19:45:19.747Z,4.85
2023-12-23T19:48:21.709Z,4.72
2023-12-23T19:51:24.593Z,4.78
2023-12-23T19:54:26.452Z,4.78
2023-12-23T19:57:28.363Z,4.82
2023-12-23T20:00:30.248Z,4.68
2023-12-23T20:03:32.199Z,4.88
2023-12-23T20:06:36.416Z,4.50
2023-12-23T20:09:40.052Z,4.28
2023-12-23T20:12:41.969Z,4.50
2023-12-23T20:15:44.663Z,5.78
2023-12-23T20:18:46.602Z,6.57
2023-12-23T20:21:48.461Z,11.32
2023-12-23T20:24:50.785Z,9.75
2023-12-23T20:27:52.783Z,9.50
2023-12-23T20:30:54.738Z,9.68
2023-12-23T20:33:57.074Z,8.27
2023-12-23T20:37:02.545Z,5.80
2023-12-23T20:40:05.416Z,4.43
2023-12-23T20:43:07.346Z,2.70
2023-12-23T20:46:09.311Z,2.60
2023-12-23T20:49:11.401Z,2.80
2023-12-23T20:52:13.278Z,4.90
2023-12-23T20:55:15.977Z,5.22
2023-12-23T20:58:18.161Z,5.15
2023-12-23T21:01:24.299Z,5.47
2023-12-23T21:04:26.516Z,7.60
2023-12-23T21:07:28.460Z,6.60
2023-12-23T21:10:31.609Z,8.63
2023-12-23T21:13:34.924Z,10.48
2023-12-23T21:16:37.976Z,10.15
2023-12-23T21:19:39.851Z,13.18
2023-12-23T21:22:42.248Z,14.18
2023-12-23T21:25:45.425Z,15.35
2023-12-23T21:28:47.997Z,14.50
2023-12-23T21:31:50.258Z,14.90
2023-12-23T21:34:52.386Z,15.65
2023-12-23T21:37:54.310Z,15.98
2023-12-23T21:40:56.324Z,15.90
2023-12-23T21:43:58.488Z,15.23
2023-12-23T21:47:00.446Z,14.15
2023-12-23T21:50:02.469Z,13.50
2023-12-23T21:53:05.422Z,13.70
2023-12-23T21:56:07.929Z,11.95
2023-12-23T21:59:09.875Z,12.48
2023-12-23T22:02:11.793Z,12.45
2023-12-23T22:05:13.997Z,15.60
2023-12-23T22:08:17.557Z,13.07
2023-12-23T22:11:21.816Z,12.43
2023-12-23T22:14:23.965Z,11.57
2023-12-23T22:17:26.020Z,11.70
2023-12-23T22:20:28.029Z,11.70
2023-12-23T22:23:30.126Z,10.93
2023-12-23T22:26:32.014Z,9.32
2023-12-23T22:29:34.045Z,9.63
2023-12-23T22:32:36.259Z,12.88
2023-12-23T22:35:38.441Z,11.88
2023-12-23T22:38:40.406Z,12.57
2023-12-23T22:41:42.360Z,12.07
2023-12-23T22:44:44.325Z,11.57
2023-12-23T22:47:46.593Z,12.15
2023-12-23T22:50:48.558Z,11.38
2023-12-23T22:53:50.602Z,10.90
2023-12-23T22:56:52.508Z,10.00
2023-12-23T22:59:54.478Z,9.95
2023-12-23T23:02:56.919Z,9.68
2023-12-23T23:05:59.381Z,10.50
2023-12-23T23:09:01.320Z,11.55
2023-12-23T23:12:03.435Z,10.88
2023-12-23T23:15:05.907Z,9.93
2023-12-23T23:18:08.080Z,8.95
2023-12-23T23:21:10.068Z,8.68
2023-12-23T23:24:12.041Z,9.65
2023-12-23T23:27:14.068Z,10.30
2023-12-23T23:30:16.315Z,8.50
2023-12-23T23:33:18.316Z,9.18
2023-12-23T23:36:20.250Z,9.10
2023-12-23T23:39:22.076Z,7.75
2023-12-23T23:42:24.221Z,8.13
2023-12-23T23:45:26.281Z,7.63
2023-12-23T23:48:28.170Z,7.65
2023-12-23T23:51:30.205Z,7.32
2023-12-23T23:54:32.134Z,7.88
2023-12-23T23:57:35.142Z,8.63
